Terminal Aerodrome Forecast
Issued by NWS Cleveland, OH

Home | Current Version | Previous Version | Text Only | Print | Product List | Glossary Off
Versions: 1 2 3 4 5 6 7 8 9 10 11 12 13 14 15 16 17 18 19 20 21 22 23 24 25 26 27 28 29 30 31 32 33 34 35 36 37 38 39

917
FTUS41 KCLE 081522 CCB
TAFCLE
TAF COR
KCLE 081522Z 0815/0918 18007KT 3SM -RASN BR OVC011
      TEMPO 0815/0816 1SM -SN BR OVC008
     FM081600 26008KT 2SM -SN BR OVC008
      TEMPO 0816/0820 3/4SM -SN BR OVC003
     FM082000 28008KT 3SM -SN BR SCT006 OVC012
     FM090000 26005KT 5SM BR OVC012=

USA.gov is the U.S. government's official web portal to all federal, state and local government web resources and services.